Time;durP1;ratioP1;P1;durP2;ratioP2;P2;SDS_P1;SDS_P2;PMS_P1;PMS_P2;Temp;Humidity;BMP_temperature;BMP_pressure;BME280_temperature;BME280_humidity;BME280_pressure;Samples;Min_cycle;Max_cycle;Signal;HPM_P1;HPM_P2
2022/03/28 00:01:10;;;;;;;7.80;4.53;;;;;;;5.00;100.00;102200.41;5045188;28;20053;-73
2022/03/28 00:03:36;;;;;;;17.42;5.28;;;;;;;5.03;100.00;102197.63;5045180;28;20791;-73
2022/03/28 00:06:03;;;;;;;6.05;4.35;;;;;;;5.02;100.00;102185.31;5040562;28;20020;-73
2022/03/28 00:08:29;;;;;;;5.85;3.75;;;;;;;5.05;100.00;102185.13;5044813;28;20045;-73
2022/03/28 00:10:55;;;;;;;7.82;4.28;;;;;;;5.18;100.00;102187.06;5045170;28;20025;-73
2022/03/28 00:13:20;;;;;;;12.15;4.78;;;;;;;5.23;100.00;102196.41;5027218;28;20082;-74
2022/03/28 00:15:46;;;;;;;9.57;4.20;;;;;;;5.25;100.00;102177.78;5045945;28;20032;-73
2022/03/28 00:18:12;;;;;;;5.55;3.53;;;;;;;5.22;100.00;102175.31;5031228;28;20184;-73
2022/03/28 00:20:38;;;;;;;13.57;3.90;;;;;;;5.15;100.00;102161.63;5048896;28;20033;-73
2022/03/28 00:23:03;;;;;;;12.35;3.53;;;;;;;5.07;100.00;102166.50;5030953;28;20470;-73
2022/03/28 00:25:30;;;;;;;10.48;4.13;;;;;;;5.10;100.00;102155.72;5048899;28;20029;-73
2022/03/28 00:27:55;;;;;;;7.95;3.15;;;;;;;5.19;100.00;102167.56;5048502;28;20045;-73
2022/03/28 00:30:21;;;;;;;7.90;3.13;;;;;;;5.21;100.00;102155.09;5030757;28;20036;-74
2022/03/28 00:32:46;;;;;;;6.15;3.25;;;;;;;5.07;100.00;102145.31;5030758;28;20044;-73
2022/03/28 00:35:12;;;;;;;11.27;3.80;;;;;;;5.11;100.00;102153.94;5048677;28;20029;-73
2022/03/28 00:37:39;;;;;;;7.77;4.17;;;;;;;5.06;100.00;102144.47;5048472;28;20120;-74
2022/03/28 00:40:09;;;;;;;8.40;2.88;;;;;;;5.06;100.00;102139.19;5048333;28;20036;-75
2022/03/28 00:42:37;;;;;;;4.63;3.13;;;;;;;5.08;100.00;102144.41;5048532;28;20420;-73
2022/03/28 00:45:06;;;;;;;9.43;3.22;;;;;;;5.13;100.00;102138.78;5040387;28;20032;-73
2022/03/28 00:47:32;;;;;;;5.82;3.10;;;;;;;5.13;100.00;102134.38;5030696;28;20123;-73
2022/03/28 00:49:58;;;;;;;9.77;3.95;;;;;;;5.10;100.00;102120.47;5048152;28;20021;-73
2022/03/28 00:52:24;;;;;;;6.70;3.83;;;;;;;5.05;100.00;102126.03;5030686;28;20051;-73
2022/03/28 00:54:50;;;;;;;7.57;3.40;;;;;;;5.12;100.00;102122.06;5047975;28;20029;-73
2022/03/28 00:57:17;;;;;;;6.13;2.85;;;;;;;5.08;100.00;102112.63;5048192;28;20028;-74
2022/03/28 00:59:43;;;;;;;6.80;3.83;;;;;;;5.10;100.00;102110.72;5029949;28;20072;-73
2022/03/28 01:02:08;;;;;;;9.90;4.85;;;;;;;5.17;100.00;102121.78;5048407;28;20056;-73
2022/03/28 01:04:35;;;;;;;6.20;3.58;;;;;;;5.22;100.00;102122.34;5030374;28;20508;-75
2022/03/28 01:07:00;;;;;;;7.38;3.67;;;;;;;5.11;100.00;102103.66;5048215;28;20063;-74
2022/03/28 01:09:26;;;;;;;6.97;3.60;;;;;;;5.15;100.00;102116.59;5047802;28;20071;-74
2022/03/28 01:11:52;;;;;;;8.77;4.33;;;;;;;5.16;100.00;102114.81;5030254;28;20036;-74
2022/03/28 01:14:17;;;;;;;9.18;3.65;;;;;;;5.12;100.00;102100.03;5030079;28;20374;-74
2022/03/28 01:19:27;;;;;;;9.90;3.37;;;;;;;5.12;100.00;102100.03;5047481;28;20294;-73
2022/03/28 01:21:53;;;;;;;9.03;3.83;;;;;;;5.13;100.00;102092.00;5048079;28;20625;-73
2022/03/28 01:24:18;;;;;;;5.77;3.70;;;;;;;5.17;100.00;102097.97;5030070;28;20025;-74
2022/03/28 01:26:45;;;;;;;10.13;4.17;;;;;;;5.05;100.00;102083.69;5012999;28;20490;-74
2022/03/28 01:29:13;;;;;;;7.35;4.30;;;;;;;4.92;100.00;102086.22;5047307;28;20681;-73
2022/03/28 01:31:39;;;;;;;5.65;3.40;;;;;;;4.95;100.00;102091.34;5029728;28;20132;-73
2022/03/28 01:34:05;;;;;;;;;;;;;;;4.96;100.00;102097.47;5030385;28;20021;-73
2022/03/28 01:36:30;;;;;;;;;;;;;;;4.97;100.00;102097.38;5030148;28;20008;-73
2022/03/28 01:38:56;;;;;;;6.70;3.50;;;;;;;4.96;100.00;102090.38;5047391;28;19963;-74
2022/03/28 01:41:21;;;;;;;5.93;4.03;;;;;;;4.90;100.00;102088.13;5029563;28;20083;-73
2022/03/28 01:43:46;;;;;;;9.07;3.77;;;;;;;4.90;100.00;102089.91;5045170;28;20056;-73
2022/03/28 01:46:12;;;;;;;6.17;4.03;;;;;;;4.91;100.00;102092.44;5029577;28;20029;-73
2022/03/28 01:48:37;;;;;;;16.57;5.93;;;;;;;4.88;100.00;102090.00;5047136;28;20048;-73
2022/03/28 01:51:03;;;;;;;8.10;3.72;;;;;;;4.90;100.00;102082.81;5029466;28;20021;-73
2022/03/28 01:53:28;;;;;;;9.10;4.70;;;;;;;4.83;100.00;102085.00;5047449;28;20025;-74
2022/03/28 01:55:53;;;;;;;9.73;3.67;;;;;;;4.75;100.00;102079.31;5028960;28;20383;-74
2022/03/28 01:58:19;;;;;;;8.27;4.20;;;;;;;4.84;100.00;102069.97;5047453;28;20547;-74
2022/03/28 02:00:45;;;;;;;9.00;3.87;;;;;;;4.78;100.00;102065.91;5029424;28;20928;-74
2022/03/28 02:03:10;;;;;;;5.97;3.40;;;;;;;4.73;100.00;102067.09;5047200;28;20190;-73
2022/03/28 02:05:35;;;;;;;9.17;4.20;;;;;;;4.79;100.00;102072.88;5047018;28;20463;-74
2022/03/28 02:08:02;;;;;;;7.37;3.90;;;;;;;4.84;100.00;102062.00;5047139;28;20025;-73
2022/03/28 02:10:27;;;;;;;12.30;3.53;;;;;;;4.75;100.00;102063.44;5047014;28;20482;-73
2022/03/28 02:12:53;;;;;;;7.47;4.13;;;;;;;4.76;100.00;102061.66;5029233;28;20029;-74
2022/03/28 02:15:20;;;;;;;6.60;4.05;;;;;;;4.78;100.00;102057.13;5046938;28;20295;-74
2022/03/28 02:17:46;;;;;;;4.80;3.35;;;;;;;4.84;100.00;102062.84;5046628;28;20033;-73
2022/03/28 02:20:12;;;;;;;11.70;3.95;;;;;;;4.82;100.00;102055.97;5028731;28;20047;-73
2022/03/28 02:22:39;;;;;;;6.25;3.47;;;;;;;4.84;100.00;102056.72;5046662;28;20039;-73
2022/03/28 02:25:07;;;;;;;8.02;3.83;;;;;;;4.81;100.00;102054.28;5028944;28;20028;-73
2022/03/28 02:27:32;;;;;;;7.95;3.65;;;;;;;4.88;100.00;102047.66;5029188;28;20025;-73
2022/03/28 02:29:58;;;;;;;7.45;3.58;;;;;;;4.94;100.00;102052.59;5046393;28;20032;-74
2022/03/28 02:32:23;;;;;;;8.93;3.37;;;;;;;4.91;100.00;102046.63;5046611;28;20024;-74
2022/03/28 02:34:49;;;;;;;8.57;3.57;;;;;;;4.89;100.00;102051.16;5028695;28;20410;-74
2022/03/28 02:37:15;;;;;;;10.02;4.43;;;;;;;4.84;100.00;102040.84;5046769;28;20037;-74
2022/03/28 02:39:40;;;;;;;5.95;3.90;;;;;;;4.85;100.00;102034.63;5046084;28;20037;-74
2022/03/28 02:42:06;;;;;;;9.57;4.23;;;;;;;4.88;100.00;102037.06;5046859;28;20479;-73
2022/03/28 02:44:31;;;;;;;6.68;3.83;;;;;;;4.84;100.00;102048.78;5046509;28;20029;-73
2022/03/28 02:46:57;;;;;;;8.13;4.40;;;;;;;4.88;100.00;102050.31;5046545;28;20071;-74
2022/03/28 02:49:22;;;;;;;10.88;4.20;;;;;;;4.79;100.00;102037.63;5028392;28;20025;-74
2022/03/28 02:51:48;;;;;;;6.47;3.87;;;;;;;4.85;100.00;102042.56;5046572;28;20108;-74
2022/03/28 02:54:14;;;;;;;9.35;4.30;;;;;;;4.79;100.00;102035.84;5012264;28;20313;-74
2022/03/28 02:56:39;;;;;;;8.40;4.93;;;;;;;4.82;100.00;102027.72;5046235;28;20021;-74
2022/03/28 02:59:05;;;;;;;10.77;4.80;;;;;;;4.74;100.00;102026.50;5028383;28;20275;-74
2022/03/28 03:01:31;;;;;;;7.97;4.20;;;;;;;4.81;100.00;102022.53;5028830;28;20609;-73
2022/03/28 03:03:56;;;;;;;11.73;4.35;;;;;;;4.83;100.00;102020.63;5045981;28;20182;-74
2022/03/28 03:06:21;;;;;;;6.23;3.90;;;;;;;4.78;100.00;102028.00;5046597;28;20457;-75
2022/03/28 03:08:47;;;;;;;10.80;4.43;;;;;;;4.79;100.00;102029.69;5045944;28;20063;-73
2022/03/28 03:11:13;;;;;;;10.05;3.22;;;;;;;4.75;100.00;102022.88;5028492;28;20048;-73
2022/03/28 03:13:38;;;;;;;9.82;3.47;;;;;;;4.78;100.00;102012.97;5045866;28;20401;-74
2022/03/28 03:16:04;;;;;;;7.33;3.30;;;;;;;4.76;100.00;102011.38;5046202;28;20025;-74
2022/03/28 03:18:29;;;;;;;5.07;3.22;;;;;;;4.75;100.00;102025.53;5011702;28;20210;-74
2022/03/28 03:20:55;;;;;;;5.77;3.47;;;;;;;4.68;100.00;102014.47;5045802;28;20395;-74
2022/03/28 03:23:21;;;;;;;9.93;3.42;;;;;;;4.49;100.00;102014.72;5028300;28;20796;-74
2022/03/28 03:25:46;;;;;;;6.40;3.27;;;;;;;4.55;100.00;102019.66;5027906;28;20021;-74
2022/03/28 03:28:11;;;;;;;4.80;3.23;;;;;;;4.56;100.00;102018.69;5046157;28;20025;-73
2022/03/28 03:30:37;;;;;;;5.03;3.37;;;;;;;4.55;100.00;102019.66;5045569;28;20493;-73
2022/03/28 03:33:02;;;;;;;7.23;3.40;;;;;;;4.59;100.00;102020.34;5027968;28;20114;-74
2022/03/28 03:35:27;;;;;;;8.40;3.83;;;;;;;4.46;100.00;102008.78;5028001;28;20075;-73
2022/03/28 03:37:53;;;;;;;7.63;3.40;;;;;;;4.41;100.00;102014.34;5045597;28;20040;-74
2022/03/28 03:40:18;;;;;;;7.50;3.50;;;;;;;4.43;100.00;102001.88;5045386;28;20474;-73
2022/03/28 03:42:44;;;;;;;8.73;3.55;;;;;;;4.43;100.00;101999.25;5027999;28;20060;-73
2022/03/28 03:45:10;;;;;;;7.40;3.00;;;;;;;4.52;100.00;102013.69;5045491;28;21006;-74
2022/03/28 03:47:36;;;;;;;6.90;3.40;;;;;;;4.48;100.00;102004.25;5027854;28;20045;-73
2022/03/28 03:50:04;;;;;;;7.15;3.33;;;;;;;4.46;100.00;102007.00;5027158;28;20044;-74
2022/03/28 03:52:30;;;;;;;5.35;3.00;;;;;;;4.48;100.00;101999.81;5045776;28;20037;-74
2022/03/28 03:54:56;;;;;;;10.60;3.50;;;;;;;4.47;100.00;102008.66;5045292;28;20048;-73
2022/03/28 03:57:21;;;;;;;12.68;3.05;;;;;;;4.42;100.00;101995.75;5045610;28;20039;-73
2022/03/28 03:59:46;;;;;;;7.23;3.10;;;;;;;4.43;100.00;101993.97;5027477;28;20025;-74
2022/03/28 04:02:12;;;;;;;6.77;3.27;;;;;;;4.47;100.00;101992.81;5011183;28;20036;-73
2022/03/28 04:04:37;;;;;;;5.57;2.80;;;;;;;4.51;100.00;101989.03;5027523;28;20069;-74
2022/03/28 04:07:03;;;;;;;10.90;3.27;;;;;;;4.56;100.00;101986.13;5027580;28;20120;-74
2022/03/28 04:09:28;;;;;;;6.57;3.00;;;;;;;4.53;100.00;101976.56;5045146;28;20651;-74
2022/03/28 04:11:54;;;;;;;10.00;3.27;;;;;;;4.46;100.00;101980.53;5045292;28;20036;-74
2022/03/28 04:14:19;;;;;;;6.30;3.50;;;;;;;4.49;100.00;101977.69;5027635;28;20042;-74
2022/03/28 04:16:44;;;;;;;5.43;3.63;;;;;;;4.52;100.00;101977.53;5027446;28;20037;-74
2022/03/28 04:19:10;;;;;;;8.23;3.60;;;;;;;4.42;100.00;101968.44;5045139;28;20040;-74
2022/03/28 04:21:35;;;;;;;9.67;3.53;;;;;;;4.41;100.00;101966.75;5027413;28;20037;-73
2022/03/28 04:24:00;;;;;;;6.90;3.97;;;;;;;4.44;100.00;101966.56;5027318;28;20506;-73
2022/03/28 04:26:26;;;;;;;6.43;3.90;;;;;;;4.48;100.00;101978.66;5045216;28;20024;-74
2022/03/28 04:28:51;;;;;;;9.40;4.27;;;;;;;4.47;100.00;101961.06;5027383;28;20398;-74
2022/03/28 04:31:16;;;;;;;7.07;3.97;;;;;;;4.49;100.00;101961.84;5027454;28;20036;-73
2022/03/28 04:33:42;;;;;;;9.00;3.90;;;;;;;4.40;100.00;101949.16;5010921;28;20040;-74
2022/03/28 04:36:08;;;;;;;5.88;3.47;;;;;;;4.40;100.00;101935.94;5027236;28;20504;-74
2022/03/28 04:38:34;;;;;;;5.68;3.70;;;;;;;4.42;100.00;101942.88;5027312;28;20037;-74
2022/03/28 04:40:59;;;;;;;6.80;3.97;;;;;;;4.23;100.00;101931.69;5044936;28;20099;-74
2022/03/28 04:43:25;;;;;;;8.13;4.95;;;;;;;4.38;100.00;101945.78;5045174;28;20112;-73
2022/03/28 04:45:50;;;;;;;9.10;3.80;;;;;;;4.33;100.00;101939.91;5026998;28;20055;-73
2022/03/28 04:48:16;;;;;;;6.53;3.17;;;;;;;4.41;100.00;101940.31;5044918;28;20112;-74
2022/03/28 04:50:41;;;;;;;9.32;3.42;;;;;;;4.44;100.00;101945.41;5044624;28;20033;-73
2022/03/28 04:53:07;;;;;;;4.23;2.70;;;;;;;4.28;100.00;101934.06;5044953;28;20380;-73
2022/03/28 04:55:32;;;;;;;4.67;3.37;;;;;;;4.29;100.00;101941.06;5044968;28;20491;-73
2022/03/28 04:57:58;;;;;;;5.88;3.17;;;;;;;4.36;100.00;101937.09;5044682;28;20303;-73
2022/03/28 05:00:23;;;;;;;8.38;3.42;;;;;;;4.35;100.00;101932.72;5026613;28;20517;-74
2022/03/28 05:02:49;;;;;;;4.87;2.83;;;;;;;4.37;100.00;101936.97;5045838;28;20037;-74
2022/03/28 05:05:14;;;;;;;9.13;3.47;;;;;;;4.40;100.00;101935.94;5048526;28;20890;-73
2022/03/28 05:07:40;;;;;;;7.50;3.30;;;;;;;4.37;100.00;101936.13;5048170;28;20087;-74
2022/03/28 05:10:06;;;;;;;6.93;3.27;;;;;;;4.32;100.00;101931.13;5048098;28;20278;-74
2022/03/28 05:12:32;;;;;;;6.60;3.22;;;;;;;4.35;100.00;101943.31;5048277;28;20120;-74
2022/03/28 05:14:58;;;;;;;;;;;;;;;4.39;100.00;101939.53;5030370;28;20025;-74
2022/03/28 05:17:25;;;;;;;4.97;2.70;;;;;;;4.46;100.00;101950.59;5048196;28;19920;-74
2022/03/28 05:19:52;;;;;;;4.75;2.90;;;;;;;4.41;100.00;101945.59;5047226;28;20127;-75
2022/03/28 05:22:19;;;;;;;8.07;3.78;;;;;;;4.47;100.00;101945.19;5030117;28;20126;-74
2022/03/28 05:24:45;;;;;;;5.75;3.53;;;;;;;4.33;100.00;101948.72;5029551;28;20025;-74
2022/03/28 05:27:10;;;;;;;4.97;3.20;;;;;;;4.41;100.00;101942.94;5048142;28;20025;-74
2022/03/28 05:29:36;;;;;;;8.35;3.33;;;;;;;4.48;100.00;101940.78;5029316;28;20051;-74
2022/03/28 05:32:01;;;;;;;6.37;3.80;;;;;;;4.46;100.00;101943.50;5047969;28;20033;-74
2022/03/28 05:34:30;;;;;;;6.63;3.73;;;;;;;4.53;100.00;101938.72;5047743;28;20447;-73
2022/03/28 05:37:00;;;;;;;5.97;3.80;;;;;;;4.55;100.00;101939.47;5047708;28;20143;-73
2022/03/28 05:39:26;;;;;;;8.93;4.50;;;;;;;4.53;100.00;101936.06;5047016;28;20037;-73
2022/03/28 05:41:52;;;;;;;;;;;;;;;4.60;100.00;101935.59;5047363;28;20021;-74
2022/03/28 05:44:19;;;;;;;6.30;3.85;;;;;;;4.52;100.00;101926.41;5029580;28;20415;-74
2022/03/28 05:46:44;;;;;;;7.85;4.45;;;;;;;4.43;100.00;101915.47;5047563;28;20021;-74
2022/03/28 05:49:09;;;;;;;8.97;4.53;;;;;;;4.41;100.00;101924.44;5046627;28;20902;-74
2022/03/28 05:51:35;;;;;;;8.60;4.20;;;;;;;4.36;100.00;101922.06;5047303;28;20045;-74
2022/03/28 05:54:00;;;;;;;26.33;4.90;;;;;;;4.39;100.00;101915.75;5029827;28;20040;-74
2022/03/28 05:56:25;;;;;;;5.17;3.50;;;;;;;4.41;100.00;101917.34;5029426;28;20405;-74
2022/03/28 05:58:51;;;;;;;8.20;3.37;;;;;;;4.34;100.00;101899.31;5029074;28;20028;-74
2022/03/28 06:01:16;;;;;;;4.80;3.10;;;;;;;4.39;100.00;101902.53;5029295;28;20752;-74
2022/03/28 06:03:42;;;;;;;4.10;2.80;;;;;;;4.50;100.00;101902.72;5047459;28;20036;-74
2022/03/28 06:06:08;;;;;;;5.53;3.10;;;;;;;4.57;100.00;101909.34;5029462;28;20028;-74
2022/03/28 06:08:35;;;;;;;4.38;3.13;;;;;;;4.57;100.00;101906.69;5029043;28;20128;-74
2022/03/28 06:11:03;;;;;;;5.22;2.75;;;;;;;4.57;100.00;101906.69;5029218;28;20036;-74
2022/03/28 06:13:29;;;;;;;3.13;1.90;;;;;;;4.62;100.00;101896.66;5046540;28;20402;-74
2022/03/28 06:15:55;;;;;;;2.90;2.08;;;;;;;4.60;100.00;101884.47;5046566;28;20048;-74
2022/03/28 06:18:20;;;;;;;2.87;2.20;;;;;;;4.69;100.00;101883.06;5046986;28;20071;-74
2022/03/28 06:20:45;;;;;;;6.07;2.13;;;;;;;4.75;100.00;101890.59;5046636;28;20071;-73
2022/03/28 06:23:12;;;;;;;3.88;2.47;;;;;;;4.74;100.00;101878.31;5046757;28;20090;-75
2022/03/28 06:25:37;;;;;;;3.35;2.47;;;;;;;4.61;100.00;101878.22;5028854;28;20079;-74
2022/03/28 06:28:03;;;;;;;4.55;2.53;;;;;;;4.61;100.00;101871.16;5012628;28;20498;-74
2022/03/28 06:30:29;;;;;;;4.88;2.45;;;;;;;4.64;100.00;101873.63;5046655;28;20035;-76
2022/03/28 06:32:54;;;;;;;4.03;2.55;;;;;;;4.71;100.00;101874.09;5046652;28;20029;-74
2022/03/28 06:35:20;;;;;;;3.37;2.40;;;;;;;4.74;100.00;101873.88;5046666;28;20037;-73
2022/03/28 06:37:49;;;;;;;6.38;2.30;;;;;;;4.84;100.00;101874.13;5046199;28;20291;-74
2022/03/28 06:40:14;;;;;;;4.60;2.97;;;;;;;5.02;100.00;101867.66;5046400;28;20108;-74
2022/03/28 06:42:40;;;;;;;3.53;2.57;;;;;;;5.00;100.00;101863.44;5046337;28;20120;-74
2022/03/28 06:45:06;;;;;;;3.72;3.08;;;;;;;4.97;100.00;101868.94;5046513;28;20489;-74
2022/03/28 06:47:31;;;;;;;3.55;2.28;;;;;;;5.08;100.00;101859.34;5046359;28;20039;-75
2022/03/28 06:49:56;;;;;;;2.43;1.67;;;;;;;5.11;100.00;101852.16;5028311;28;20086;-74
2022/03/28 06:52:22;;;;;;;3.73;1.87;;;;;;;5.10;100.00;101842.50;5011951;28;20044;-74
2022/03/28 06:54:47;;;;;;;3.20;1.70;;;;;;;5.05;100.00;101838.34;5045938;28;20037;-74
2022/03/28 06:57:12;;;;;;;2.30;1.47;;;;;;;5.14;100.00;101847.50;5027697;28;20025;-74
2022/03/28 06:59:38;;;;;;;2.70;1.70;;;;;;;5.27;100.00;101840.44;5028025;28;20055;-74
2022/03/28 07:02:04;;;;;;;2.92;1.38;;;;;;;5.38;100.00;101841.53;5046414;28;20465;-76
2022/03/28 07:04:29;;;;;;;2.17;1.30;;;;;;;5.49;100.00;101850.47;5028221;28;20024;-74
2022/03/28 07:06:55;;;;;;;2.07;1.40;;;;;;;5.58;100.00;101848.16;5050404;28;20583;-74
2022/03/28 07:09:20;;;;;;;3.50;1.37;;;;;;;5.74;100.00;101854.13;5036003;28;20297;-74
2022/03/28 07:11:45;;;;;;;2.23;1.43;;;;;;;5.81;100.00;101855.41;5046413;28;20151;-74
2022/03/28 07:14:11;;;;;;;1.53;1.33;;;;;;;5.72;100.00;101846.25;5027543;28;20017;-74
2022/03/28 07:16:37;;;;;;;27.42;10.57;;;;;;;5.87;100.00;101847.00;5028089;28;20029;-74
2022/03/28 07:19:03;;;;;;;42.93;16.17;;;;;;;6.09;100.00;101845.59;5027743;28;20102;-74
2022/03/28 07:21:29;;;;;;;5.63;3.00;;;;;;;6.12;100.00;101826.81;5045481;28;20114;-75
2022/03/28 07:23:54;;;;;;;2.20;1.52;;;;;;;6.17;100.00;101827.31;5013302;28;20648;-74
2022/03/28 07:26:20;;;;;;;4.55;1.92;;;;;;;6.15;100.00;101800.06;5045022;28;20020;-73
2022/03/28 07:28:46;;;;;;;4.20;1.73;;;;;;;6.20;100.00;101813.00;5045255;28;20078;-74
2022/03/28 07:31:11;;;;;;;3.27;2.20;;;;;;;6.11;100.00;101795.91;5027817;28;20021;-74
2022/03/28 07:33:41;;;;;;;2.43;1.53;;;;;;;6.04;100.00;101782.28;5027726;28;20287;-74
2022/03/28 07:36:08;;;;;;;2.03;1.52;;;;;;;6.16;100.00;101785.88;5045468;28;20116;-74
2022/03/28 07:38:33;;;;;;;3.53;2.13;;;;;;;6.17;100.00;101792.84;5027299;28;20052;-74
2022/03/28 07:40:59;;;;;;;2.47;1.40;;;;;;;6.02;100.00;101784.19;5045396;28;20051;-74
2022/03/28 07:43:24;;;;;;;2.20;1.87;;;;;;;6.03;100.00;101793.81;5027792;28;20028;-74
2022/03/28 07:45:52;;;;;;;7.77;2.83;;;;;;;6.41;100.00;101815.94;5044960;28;20033;-74
2022/03/28 07:48:18;;;;;;;5.15;2.00;;;;;;;6.39;100.00;101807.22;5045303;28;20021;-74
2022/03/28 07:50:45;;;;;;;5.10;2.00;;;;;;;6.29;100.00;101791.13;5044811;28;20047;-74
2022/03/28 07:53:11;;;;;;;4.10;2.00;;;;;;;6.36;100.00;101779.13;5045419;28;20473;-74
2022/03/28 07:55:37;;;;;;;6.65;1.95;;;;;;;6.70;100.00;101788.16;5027242;28;20033;-74
2022/03/28 07:58:03;;;;;;;3.80;2.08;;;;;;;6.86;100.00;101794.97;5027773;28;20021;-74
2022/03/28 08:00:29;;;;;;;5.03;2.47;;;;;;;7.14;100.00;101791.13;5010782;28;20086;-74
2022/03/28 08:02:55;;;;;;;;;;;;;;;7.21;100.00;101778.25;5045556;28;20021;-74
2022/03/28 08:05:20;;;;;;;;;;;;;;;7.31;100.00;101781.91;5045375;28;19923;-74
2022/03/28 08:07:45;;;;;;;4.43;2.27;;;;;;;7.29;100.00;101770.56;5045043;28;19909;-74
2022/03/28 08:10:13;;;;;;;5.77;2.20;;;;;;;7.47;100.00;101757.66;5027052;28;20744;-74
2022/03/28 08:12:38;;;;;;;4.68;2.40;;;;;;;7.51;100.00;101754.66;5045284;28;20078;-74
2022/03/28 08:15:08;;;;;;;5.50;2.33;;;;;;;7.60;99.27;101761.91;5026927;28;20068;-75
2022/03/28 08:17:37;;;;;;;3.90;2.42;;;;;;;7.65;98.68;101761.56;5045229;28;20056;-74
2022/03/28 08:20:06;;;;;;;3.17;2.00;;;;;;;7.44;96.37;101726.88;5018979;28;20037;-74
2022/03/28 08:22:32;;;;;;;4.72;2.47;;;;;;;7.33;94.64;101708.28;5045063;28;20021;-74
2022/03/28 08:24:58;;;;;;;3.50;2.33;;;;;;;7.00;94.59;101699.25;5044798;28;20048;-74
2022/03/28 08:27:23;;;;;;;7.23;2.63;;;;;;;7.02;94.89;101707.94;5044976;28;20017;-74
2022/03/28 08:29:48;;;;;;;3.90;2.70;;;;;;;7.03;94.26;101698.19;5026962;28;20501;-74
2022/03/28 08:32:15;;;;;;;7.90;2.88;;;;;;;6.92;94.14;101697.16;5011082;28;20072;-74
2022/03/28 08:34:41;;;;;;;9.63;3.40;;;;;;;6.64;92.77;101666.53;5026988;28;20035;-73
2022/03/28 08:37:09;;;;;;;6.30;2.75;;;;;;;6.78;92.86;101683.25;5028839;28;20304;-74
2022/03/28 08:39:34;;;;;;;5.95;3.17;;;;;;;6.59;92.86;101681.13;5048336;28;20116;-75
2022/03/28 08:42:00;;;;;;;4.67;2.73;;;;;;;6.58;93.09;101690.88;5048659;28;20154;-74
2022/03/28 08:44:27;;;;;;;9.02;3.25;;;;;;;6.82;93.71;101703.28;5030872;28;20500;-74
2022/03/28 08:46:55;;;;;;;5.63;3.33;;;;;;;7.08;93.56;101702.16;5030545;28;20037;-74
2022/03/28 08:49:20;;;;;;;7.15;2.95;;;;;;;7.35;92.56;101711.63;5013441;28;20040;-73
2022/03/28 08:51:46;;;;;;;7.80;3.27;;;;;;;7.02;91.71;101686.69;5046769;28;20104;-74
2022/03/28 08:54:13;;;;;;;8.13;3.47;;;;;;;7.25;91.38;101700.03;5048554;28;20032;-74
2022/03/28 08:56:38;;;;;;;6.38;2.72;;;;;;;7.27;90.49;101685.66;5030425;28;20074;-74
2022/03/28 08:59:05;;;;;;;6.57;3.90;;;;;;;7.46;90.33;101685.09;5048399;28;20158;-74
2022/03/28 09:01:31;;;;;;;7.10;3.42;;;;;;;7.32;89.09;101656.09;5030605;28;20040;-74
2022/03/28 09:04:06;;;;;;;7.30;3.72;;;;;;;7.32;88.95;101656.94;5048211;28;20122;-75
2022/03/28 09:06:39;;;;;;;6.23;3.37;;;;;;;7.51;89.11;101674.09;5030563;28;20040;-74
2022/03/28 09:09:27;;;;;;;8.07;3.88;;;;;;;7.44;88.60;101656.94;5029950;28;20035;-74
2022/03/28 09:11:55;;;;;;;13.60;5.45;;;;;;;7.57;88.06;101669.16;5013826;28;20506;-74
2022/03/28 09:14:29;;;;;;;10.55;4.93;;;;;;;7.81;87.38;101676.16;5047998;28;20020;-74
2022/03/28 09:17:05;;;;;;;10.15;4.88;;;;;;;7.98;86.47;101664.16;5030293;28;20051;-73
2022/03/28 09:19:42;;;;;;;8.57;4.30;;;;;;;8.04;85.75;101661.88;5029826;28;20072;-74
2022/03/28 09:22:15;;;;;;;9.40;4.82;;;;;;;8.16;84.80;101644.06;5027669;28;20478;-74
2022/03/28 09:24:42;;;;;;;6.68;4.20;;;;;;;8.03;84.85;101638.91;5047900;28;20040;-74
2022/03/28 09:27:18;;;;;;;8.98;4.47;;;;;;;8.10;84.86;101639.25;5048106;28;20013;-74
2022/03/28 09:29:57;;;;;;;7.18;3.92;;;;;;;8.23;84.64;101639.09;5029668;28;20486;-74
2022/03/28 09:32:26;;;;;;;8.50;4.82;;;;;;;8.48;84.28;101651.28;5030147;28;20397;-75
2022/03/28 09:35:19;;;;;;;10.50;4.50;;;;;;;8.62;83.86;101650.97;5029940;28;20709;-74
2022/03/28 09:38:02;;;;;;;6.80;4.40;;;;;;;8.63;82.97;101619.88;5029726;28;20109;-74
2022/03/28 09:40:35;;;;;;;10.68;4.93;;;;;;;8.68;82.69;101619.47;5047809;28;20037;-74
2022/03/28 09:43:04;;;;;;;6.32;4.05;;;;;;;8.77;82.58;101630.19;5047504;28;20493;-74
2022/03/28 09:45:32;;;;;;;11.43;4.93;;;;;;;8.80;82.15;101618.44;5029685;28;20013;-75
2022/03/28 09:48:02;;;;;;;8.73;5.05;;;;;;;8.59;82.79;101607.78;5028962;28;20033;-75
2022/03/28 09:50:41;;;;;;;8.65;5.45;;;;;;;8.61;82.27;101608.50;5012798;28;20112;-74
2022/03/28 09:53:19;;;;;;;9.10;4.60;;;;;;;8.72;82.68;101616.44;5013201;28;20033;-74
2022/03/28 09:55:53;;;;;;;9.13;4.53;;;;;;;8.48;82.18;101587.41;5029324;28;20494;-75
2022/03/28 09:58:56;;;;;;;8.05;4.38;;;;;;;8.64;83.65;101624.22;5047123;28;20036;-74
2022/03/28 10:01:35;;;;;;;10.50;5.15;;;;;;;8.63;83.05;101609.22;5041773;28;20040;-74
2022/03/28 10:04:10;;;;;;;9.10;5.30;;;;;;;8.24;83.20;101587.56;5029509;28;20039;-74
2022/03/28 10:06:38;;;;;;;9.43;4.78;;;;;;;8.22;84.46;101608.16;5029375;28;20037;-74
2022/03/28 10:09:05;;;;;;;9.30;4.45;;;;;;;8.23;84.44;101605.34;5046839;28;20402;-74
2022/03/28 10:11:31;;;;;;;7.40;4.50;;;;;;;8.50;84.36;101621.84;5047084;28;20069;-74
2022/03/28 10:13:58;;;;;;;10.95;5.03;;;;;;;8.58;84.57;101616.75;5028965;28;20024;-75
2022/03/28 10:16:23;;;;;;;12.70;5.70;;;;;;;8.53;84.21;101587.00;5029009;28;20029;-75
2022/03/28 10:18:50;;;;;;;11.73;5.33;;;;;;;8.68;84.09;101617.66;5028919;28;20676;-75
2022/03/28 10:21:19;;;;;;;;;;;;;;;8.79;84.09;101619.41;5047268;28;20408;-75
2022/03/28 10:24:06;;;;;;;10.10;5.53;;;;;;;8.81;83.60;101607.66;5012605;28;19995;-74
2022/03/28 10:26:37;;;;;;;8.82;5.35;;;;;;;9.00;83.21;101616.75;5046956;28;20036;-75
2022/03/28 10:29:14;;;;;;;12.30;5.57;;;;;;;8.81;82.96;101601.50;5038467;28;20083;-74
2022/03/28 10:32:20;;;;;;;12.95;5.15;;;;;;;8.55;82.97;101580.59;5028940;28;20033;-75
2022/03/28 10:34:52;;;;;;;9.70;5.25;;;;;;;8.59;83.31;101591.81;5006112;28;20056;-75
2022/03/28 10:37:34;;;;;;;8.88;5.40;;;;;;;8.78;83.39;101604.41;5046636;28;20374;-75
2022/03/28 10:40:11;;;;;;;10.73;4.88;;;;;;;8.93;83.42;101602.28;5046483;28;20024;-75
2022/03/28 10:42:38;;;;;;;8.50;4.68;;;;;;;8.98;83.01;101597.41;5028734;28;20029;-75
2022/03/28 10:45:07;;;;;;;9.70;4.85;;;;;;;9.03;82.79;101595.19;5046240;28;20025;-75
2022/03/28 10:47:45;;;;;;;8.65;5.07;;;;;;;9.12;82.79;101596.22;5028085;28;20028;-75
2022/03/28 10:50:12;;;;;;;13.60;5.78;;;;;;;9.17;81.73;101570.84;5039145;28;20039;-75
2022/03/28 10:52:58;;;;;;;10.63;6.22;;;;;;;9.50;80.73;101582.19;5028282;28;20051;-75
2022/03/28 10:55:32;;;;;;;;;;;;;;;9.66;80.04;101569.19;5028861;28;20035;-75
2022/03/28 10:58:31;;;;;;;10.00;5.10;;;;;;;9.57;79.33;101532.69;5046091;28;20318;-75
2022/03/28 11:01:05;;;;;;;10.98;4.70;;;;;;;9.42;79.12;101526.06;5002308;28;20416;-75
2022/03/28 11:03:58;;;;;;;11.20;5.10;;;;;;;9.64;79.66;101549.84;5028365;28;20041;-75
2022/03/28 11:07:01;;;;;;;9.65;5.25;;;;;;;9.71;79.08;101548.31;5006688;28;20029;-75
2022/03/28 11:10:01;;;;;;;8.65;5.35;;;;;;;9.77;79.16;101541.59;5023225;28;20572;-75
2022/03/28 11:12:40;;;;;;;8.88;5.30;;;;;;;9.84;78.06;101510.72;5040106;28;20037;-74
2022/03/28 11:15:13;;;;;;;13.80;6.70;;;;;;;9.59;77.96;101489.91;5020645;28;20731;-75
2022/03/28 11:17:54;;;;;;;11.65;5.30;;;;;;;9.92;77.85;101516.19;5027771;28;20511;-75
2022/03/28 11:20:20;;;;;;;8.15;4.70;;;;;;;10.00;77.44;101493.34;5045629;28;20093;-75
2022/03/28 11:22:56;;;;;;;;;;;;;;;9.83;77.79;101498.38;5046268;28;20037;-76
2022/03/28 11:25:36;;;;;;;;;;;;;;;9.60;78.05;101488.91;5046096;28;19916;-75
2022/03/28 11:28:12;;;;;;;10.32;6.15;;;;;;;9.51;78.86;101509.28;5037645;28;19921;-75
2022/03/28 11:30:50;;;;;;;13.02;5.47;;;;;;;9.72;79.24;101527.84;5042159;28;20098;-75
2022/03/28 11:33:18;;;;;;;10.23;5.65;;;;;;;9.76;78.81;101510.56;5046013;28;20501;-75
2022/03/28 11:35:57;;;;;;;11.70;5.68;;;;;;;9.56;79.60;101512.38;5027689;28;20025;-76